sensor_id;sensor_type;location;lat;lon;timestamp;pressure;altitude;pressure_sealevel;temperature;humidity
45345;BME280;31078;48.304;11.896;2022-11-15T16:50:23;95487.41;;;9.10;72.86
45345;BME280;31078;48.304;11.896;2022-11-15T16:52:51;95483.50;;;8.91;73.40
45345;BME280;31078;48.304;11.896;2022-11-15T16:55:18;95483.91;;;8.72;74.30
45345;BME280;31078;48.304;11.896;2022-11-15T16:57:45;95490.72;;;8.57;74.73
45345;BME280;31078;48.304;11.896;2022-11-15T17:00:13;95487.75;;;8.41;75.89
45345;BME280;31078;48.304;11.896;2022-11-15T17:02:41;95484.06;;;8.28;76.38
45345;BME280;31078;48.304;11.896;2022-11-15T17:05:07;95495.59;;;8.17;76.99
45345;BME280;31078;48.304;11.896;2022-11-15T17:07:35;95499.78;;;8.05;77.59
45345;BME280;31078;48.304;11.896;2022-11-15T17:10:02;95500.28;;;7.90;78.08
45345;BME280;31078;48.304;11.896;2022-11-15T17:12:29;95482.78;;;7.79;78.72
45345;BME280;31078;48.304;11.896;2022-11-15T17:14:55;95479.72;;;7.72;79.52
45345;BME280;31078;48.304;11.896;2022-11-15T17:17:22;95478.81;;;7.68;80.15
45345;BME280;31078;48.304;11.896;2022-11-15T17:19:50;95478.97;;;7.63;80.52
45345;BME280;31078;48.304;11.896;2022-11-15T17:22:17;95481.69;;;7.63;81.06
45345;BME280;31078;48.304;11.896;2022-11-15T17:24:45;95481.19;;;7.61;81.01
45345;BME280;31078;48.304;11.896;2022-11-15T17:27:11;95477.22;;;7.58;81.30
45345;BME280;31078;48.304;11.896;2022-11-15T17:29:39;95466.84;;;7.51;81.89
45345;BME280;31078;48.304;11.896;2022-11-15T17:32:06;95463.81;;;7.53;82.05
45345;BME280;31078;48.304;11.896;2022-11-15T17:34:32;95464.13;;;7.51;82.46
45345;BME280;31078;48.304;11.896;2022-11-15T17:36:59;95466.03;;;7.51;82.32
45345;BME280;31078;48.304;11.896;2022-11-15T17:39:26;95463.03;;;7.52;82.67
45345;BME280;31078;48.304;11.896;2022-11-15T17:41:53;95466.22;;;7.54;82.93
45345;BME280;31078;48.304;11.896;2022-11-15T17:44:20;95468.75;;;7.59;83.25
45345;BME280;31078;48.304;11.896;2022-11-15T17:46:46;95472.59;;;7.58;83.09
45345;BME280;31078;48.304;11.896;2022-11-15T17:49:13;95463.50;;;7.54;83.22
45345;BME280;31078;48.304;11.896;2022-11-15T17:51:40;95459.19;;;7.53;83.60
45345;BME280;31078;48.304;11.896;2022-11-15T17:54:09;95452.50;;;7.51;83.73
45345;BME280;31078;48.304;11.896;2022-11-15T17:56:37;95453.94;;;7.48;84.07
45345;BME280;31078;48.304;11.896;2022-11-15T17:59:06;95445.31;;;7.46;83.94
45345;BME280;31078;48.304;11.896;2022-11-15T18:01:33;95444.88;;;7.44;83.90
45345;BME280;31078;48.304;11.896;2022-11-15T18:04:02;95441.81;;;7.46;83.81
45345;BME280;31078;48.304;11.896;2022-11-15T18:06:31;95442.16;;;7.44;84.37
45345;BME280;31078;48.304;11.896;2022-11-15T18:08:59;95448.69;;;7.43;84.12
45345;BME280;31078;48.304;11.896;2022-11-15T18:11:27;95438.47;;;7.40;84.21
45345;BME280;31078;48.304;11.896;2022-11-15T18:13:55;95438.47;;;7.40;84.35
45345;BME280;31078;48.304;11.896;2022-11-15T18:16:25;95441.69;;;7.42;84.54
45345;BME280;31078;48.304;11.896;2022-11-15T18:18:52;95429.91;;;7.38;85.16
45345;BME280;31078;48.304;11.896;2022-11-15T18:21:20;95429.25;;;7.41;85.09
45345;BME280;31078;48.304;11.896;2022-11-15T18:23:47;95426.53;;;7.41;84.98
45345;BME280;31078;48.304;11.896;2022-11-15T18:26:16;95418.72;;;7.40;85.30
45345;BME280;31078;48.304;11.896;2022-11-15T18:28:43;95417.47;;;7.37;85.31
45345;BME280;31078;48.304;11.896;2022-11-15T18:31:12;95418.09;;;7.34;85.32
45345;BME280;31078;48.304;11.896;2022-11-15T18:33:41;95418.59;;;7.27;85.34
45345;BME280;31078;48.304;11.896;2022-11-15T18:36:10;95420.81;;;7.25;85.58
45345;BME280;31078;48.304;11.896;2022-11-15T18:38:38;95420.81;;;7.25;85.70
45345;BME280;31078;48.304;11.896;2022-11-15T18:41:06;95421.63;;;7.26;85.78
45345;BME280;31078;48.304;11.896;2022-11-15T18:43:33;95423.22;;;7.27;85.82
45345;BME280;31078;48.304;11.896;2022-11-15T18:46:01;95414.13;;;7.23;85.61
45345;BME280;31078;48.304;11.896;2022-11-15T18:48:28;95408.56;;;7.19;85.85
45345;BME280;31078;48.304;11.896;2022-11-15T18:51:00;95415.75;;;7.15;86.26
45345;BME280;31078;48.304;11.896;2022-11-15T18:53:27;95411.75;;;7.13;85.97
45345;BME280;31078;48.304;11.896;2022-11-15T18:55:53;95404.09;;;7.15;86.24
45345;BME280;31078;48.304;11.896;2022-11-15T18:58:21;95400.75;;;7.09;86.76
45345;BME280;31078;48.304;11.896;2022-11-15T19:00:48;95410.78;;;7.09;86.59
45345;BME280;31078;48.304;11.896;2022-11-15T19:03:14;95401.41;;;7.06;86.71
45345;BME280;31078;48.304;11.896;2022-11-15T19:05:41;95403.31;;;7.05;86.46
45345;BME280;31078;48.304;11.896;2022-11-15T19:08:09;95390.88;;;7.04;86.73
45345;BME280;31078;48.304;11.896;2022-11-15T19:10:35;95392.66;;;7.00;86.50
45345;BME280;31078;48.304;11.896;2022-11-15T19:13:02;95387.53;;;6.99;86.75
45345;BME280;31078;48.304;11.896;2022-11-15T19:15:29;95386.25;;;6.96;87.07
45345;BME280;31078;48.304;11.896;2022-11-15T19:17:56;95385.31;;;6.92;86.93
45345;BME280;31078;48.304;11.896;2022-11-15T19:20:23;95390.53;;;6.89;87.13
45345;BME280;31078;48.304;11.896;2022-11-15T19:22:49;95385.00;;;6.85;87.40
45345;BME280;31078;48.304;11.896;2022-11-15T19:25:17;95387.19;;;6.83;87.24
45345;BME280;31078;48.304;11.896;2022-11-15T19:27:46;95378.28;;;6.83;87.44
45345;BME280;31078;48.304;11.896;2022-11-15T19:30:12;95370.16;;;6.83;87.42
45345;BME280;31078;48.304;11.896;2022-11-15T19:32:39;95368.25;;;6.83;87.69
45345;BME280;31078;48.304;11.896;2022-11-15T19:35:06;95367.78;;;6.81;87.74
45345;BME280;31078;48.304;11.896;2022-11-15T19:37:33;95368.41;;;6.78;87.82
45345;BME280;31078;48.304;11.896;2022-11-15T19:40:00;95366.03;;;6.76;87.33
45345;BME280;31078;48.304;11.896;2022-11-15T19:42:28;95361.41;;;6.77;87.65
45345;BME280;31078;48.304;11.896;2022-11-15T19:44:54;95359.03;;;6.75;87.76
45345;BME280;31078;48.304;11.896;2022-11-15T19:47:21;95357.44;;;6.74;87.53
45345;BME280;31078;48.304;11.896;2022-11-15T19:49:47;95351.88;;;6.71;87.41
45345;BME280;31078;48.304;11.896;2022-11-15T19:52:14;95361.09;;;6.70;87.81
45345;BME280;31078;48.304;11.896;2022-11-15T19:54:40;95357.91;;;6.68;87.52
45345;BME280;31078;48.304;11.896;2022-11-15T19:57:07;95361.59;;;6.63;87.82
45345;BME280;31078;48.304;11.896;2022-11-15T19:59:35;95354.56;;;6.62;87.99
45345;BME280;31078;48.304;11.896;2022-11-15T20:02:01;95349.94;;;6.63;87.89
45345;BME280;31078;48.304;11.896;2022-11-15T20:04:28;95348.34;;;6.62;88.22
45345;BME280;31078;48.304;11.896;2022-11-15T20:06:54;95352.81;;;6.58;88.51
45345;BME280;31078;48.304;11.896;2022-11-15T20:09:21;95350.28;;;6.52;88.14
45345;BME280;31078;48.304;11.896;2022-11-15T20:11:50;95359.81;;;6.50;88.49
45345;BME280;31078;48.304;11.896;2022-11-15T20:14:16;95359.34;;;6.48;88.30
45345;BME280;31078;48.304;11.896;2022-11-15T20:16:44;95351.50;;;6.46;88.25
45345;BME280;31078;48.304;11.896;2022-11-15T20:19:10;95350.56;;;6.42;88.32
45345;BME280;31078;48.304;11.896;2022-11-15T20:21:40;95340.38;;;6.39;88.43
45345;BME280;31078;48.304;11.896;2022-11-15T20:24:07;95334.50;;;6.37;88.74
45345;BME280;31078;48.304;11.896;2022-11-15T20:26:34;95330.97;;;6.37;88.65
45345;BME280;31078;48.304;11.896;2022-11-15T20:29:01;95337.22;;;6.37;88.97
45345;BME280;31078;48.304;11.896;2022-11-15T20:31:28;95330.19;;;6.36;89.23
45345;BME280;31078;48.304;11.896;2022-11-15T20:33:57;95332.88;;;6.36;89.33
45345;BME280;31078;48.304;11.896;2022-11-15T20:36:24;95326.38;;;6.37;89.56
45345;BME280;31078;48.304;11.896;2022-11-15T20:38:55;95323.19;;;6.35;89.65
45345;BME280;31078;48.304;11.896;2022-11-15T20:41:21;95327.63;;;6.31;89.77
45345;BME280;31078;48.304;11.896;2022-11-15T20:43:48;95327.16;;;6.29;89.52
45345;BME280;31078;48.304;11.896;2022-11-15T20:46:14;95324.00;;;6.27;89.53
45345;BME280;31078;48.304;11.896;2022-11-15T20:48:41;95323.50;;;6.25;89.79
45345;BME280;31078;48.304;11.896;2022-11-15T20:51:11;95314.25;;;6.26;90.42
45345;BME280;31078;48.304;11.896;2022-11-15T20:53:39;95310.63;;;6.31;90.94
45345;BME280;31078;48.304;11.896;2022-11-15T20:56:08;95300.59;;;6.31;91.12
45345;BME280;31078;48.304;11.896;2022-11-15T20:58:35;95303.78;;;6.33;91.15
45345;BME280;31078;48.304;11.896;2022-11-15T21:01:02;95299.50;;;6.32;91.06
45345;BME280;31078;48.304;11.896;2022-11-15T21:03:29;95296.47;;;6.34;91.13
45345;BME280;31078;48.304;11.896;2022-11-15T21:05:56;95291.53;;;6.36;91.03
45345;BME280;31078;48.304;11.896;2022-11-15T21:08:24;95285.97;;;6.32;90.98
45345;BME280;31078;48.304;11.896;2022-11-15T21:10:52;95285.97;;;6.32;91.45
45345;BME280;31078;48.304;11.896;2022-11-15T21:13:36;95281.50;;;6.36;91.12
45345;BME280;31078;48.304;11.896;2022-11-15T21:16:04;95284.38;;;6.40;91.20
45345;BME280;31078;48.304;11.896;2022-11-15T21:18:31;95272.63;;;6.44;91.42
45345;BME280;31078;48.304;11.896;2022-11-15T21:21:01;95275.50;;;6.48;91.18
45345;BME280;31078;48.304;11.896;2022-11-15T21:23:29;95274.53;;;6.52;91.11
45345;BME280;31078;48.304;11.896;2022-11-15T21:25:56;95280.41;;;6.54;91.18
45345;BME280;31078;48.304;11.896;2022-11-15T21:28:22;95272.31;;;6.54;90.79
45345;BME280;31078;48.304;11.896;2022-11-15T21:30:53;95274.69;;;6.56;91.28
45345;BME280;31078;48.304;11.896;2022-11-15T21:33:20;95264.66;;;6.57;91.24
45345;BME280;31078;48.304;11.896;2022-11-15T21:35:48;95264.66;;;6.57;91.53
45345;BME280;31078;48.304;11.896;2022-11-15T21:38:15;95265.63;;;6.61;91.30
45345;BME280;31078;48.304;11.896;2022-11-15T21:40:43;95257.84;;;6.59;91.47
45345;BME280;31078;48.304;11.896;2022-11-15T21:43:09;95262.44;;;6.59;91.33
45345;BME280;31078;48.304;11.896;2022-11-15T21:45:36;95256.72;;;6.60;91.52
45345;BME280;31078;48.304;11.896;2022-11-15T21:48:03;95245.09;;;6.60;91.42
45345;BME280;31078;48.304;11.896;2022-11-15T21:50:29;95243.03;;;6.57;91.22
45345;BME280;31078;48.304;11.896;2022-11-15T21:52:56;95241.44;;;6.56;91.44
45345;BME280;31078;48.304;11.896;2022-11-15T21:55:22;95232.84;;;6.53;91.10
45345;BME280;31078;48.304;11.896;2022-11-15T21:57:50;95223.28;;;6.56;91.18
45345;BME280;31078;48.304;11.896;2022-11-15T22:00:17;95208.97;;;6.56;91.19
45345;BME280;31078;48.304;11.896;2022-11-15T22:03:02;95216.63;;;6.53;90.63
45345;BME280;31078;48.304;11.896;2022-11-15T22:05:28;95211.84;;;6.50;91.22
45345;BME280;31078;48.304;11.896;2022-11-15T22:07:55;95207.09;;;6.47;91.31
45345;BME280;31078;48.304;11.896;2022-11-15T22:10:21;95202.00;;;6.46;91.53
45345;BME280;31078;48.304;11.896;2022-11-15T22:12:48;95192.91;;;6.42;91.47
45345;BME280;31078;48.304;11.896;2022-11-15T22:15:15;95191.81;;;6.34;91.57
45345;BME280;31078;48.304;11.896;2022-11-15T22:17:42;95190.88;;;6.30;91.95
45345;BME280;31078;48.304;11.896;2022-11-15T22:20:23;95186.13;;;6.27;91.83
45345;BME280;31078;48.304;11.896;2022-11-15T22:22:50;95184.50;;;6.26;92.02
45345;BME280;31078;48.304;11.896;2022-11-15T22:25:17;95182.78;;;6.21;92.50
45345;BME280;31078;48.304;11.896;2022-11-15T22:27:43;95176.53;;;6.21;92.04
45345;BME280;31078;48.304;11.896;2022-11-15T22:30:10;95167.50;;;6.17;92.27
45345;BME280;31078;48.304;11.896;2022-11-15T22:32:38;95165.91;;;6.16;92.78
45345;BME280;31078;48.304;11.896;2022-11-15T22:35:05;95161.47;;;6.11;92.53
45345;BME280;31078;48.304;11.896;2022-11-15T22:37:32;95172.56;;;6.10;92.57
45345;BME280;31078;48.304;11.896;2022-11-15T22:39:58;95181.97;;;6.04;92.41
45345;BME280;31078;48.304;11.896;2022-11-15T22:42:25;95169.41;;;5.99;92.73
45345;BME280;31078;48.304;11.896;2022-11-15T22:44:51;95166.56;;;5.95;93.01
45345;BME280;31078;48.304;11.896;2022-11-15T22:47:18;95161.44;;;5.94;92.74
45345;BME280;31078;48.304;11.896;2022-11-15T22:49:46;95158.56;;;5.90;92.32
45345;BME280;31078;48.304;11.896;2022-11-15T22:52:12;95145.34;;;5.89;92.77
45345;BME280;31078;48.304;11.896;2022-11-15T22:54:39;95144.72;;;5.83;92.41
45345;BME280;31078;48.304;11.896;2022-11-15T22:57:05;95150.44;;;5.73;92.49
45345;BME280;31078;48.304;11.896;2022-11-15T22:59:32;95155.19;;;5.67;92.77
45345;BME280;31078;48.304;11.896;2022-11-15T23:02:00;95156.13;;;5.63;92.84
45345;BME280;31078;48.304;11.896;2022-11-15T23:04:26;95159.50;;;5.60;92.46
45345;BME280;31078;48.304;11.896;2022-11-15T23:06:55;95149.81;;;5.59;92.35
45345;BME280;31078;48.304;11.896;2022-11-15T23:09:22;95159.00;;;5.58;92.92
45345;BME280;31078;48.304;11.896;2022-11-15T23:11:48;95158.19;;;5.48;92.68
45345;BME280;31078;48.304;11.896;2022-11-15T23:14:32;95168.34;;;5.43;93.29
45345;BME280;31078;48.304;11.896;2022-11-15T23:16:59;95170.38;;;5.37;93.89
45345;BME280;31078;48.304;11.896;2022-11-15T23:19:25;95177.22;;;5.35;93.60
45345;BME280;31078;48.304;11.896;2022-11-15T23:21:52;95178.63;;;5.32;93.70
45345;BME280;31078;48.304;11.896;2022-11-15T23:24:37;95178.00;;;5.35;94.10
45345;BME280;31078;48.304;11.896;2022-11-15T23:27:05;95176.41;;;5.34;94.42
45345;BME280;31078;48.304;11.896;2022-11-15T23:29:33;95183.41;;;5.35;94.80
45345;BME280;31078;48.304;11.896;2022-11-15T23:32:20;95187.06;;;5.39;94.55
45345;BME280;31078;48.304;11.896;2022-11-15T23:35:05;95181.03;;;5.34;94.37
45345;BME280;31078;48.304;11.896;2022-11-15T23:37:31;95171.31;;;5.24;94.42
45345;BME280;31078;48.304;11.896;2022-11-15T23:39:59;95164.13;;;5.19;95.17
45345;BME280;31078;48.304;11.896;2022-11-15T23:42:26;95157.81;;;5.24;95.27
45345;BME280;31078;48.304;11.896;2022-11-15T23:44:52;95154.47;;;5.18;94.78
45345;BME280;31078;48.304;11.896;2022-11-15T23:47:19;95150.31;;;5.21;94.65
45345;BME280;31078;48.304;11.896;2022-11-15T23:49:45;95148.13;;;5.23;94.23
45345;BME280;31078;48.304;11.896;2022-11-15T23:52:12;95152.41;;;5.24;94.36
45345;BME280;31078;48.304;11.896;2022-11-15T23:54:39;95144.78;;;5.17;94.21
45345;BME280;31078;48.304;11.896;2022-11-15T23:57:07;95136.03;;;5.12;94.61
45345;BME280;31078;48.304;11.896;2022-11-15T23:59:36;95126.31;;;5.11;94.90
